sensor_id;sensor_type;location;lat;lon;timestamp;pressure;altitude;pressure_sealevel;temperature;humidity
55070;BME280;40967;52.070;8.596;2023-10-19T00:00:57;98717.34;;;9.43;100.00
55070;BME280;40967;52.070;8.596;2023-10-19T00:03:25;98726.72;;;9.45;100.00
55070;BME280;40967;52.070;8.596;2023-10-19T00:05:50;98726.28;;;9.43;100.00
55070;BME280;40967;52.070;8.596;2023-10-19T00:08:18;98718.63;;;9.45;100.00
55070;BME280;40967;52.070;8.596;2023-10-19T00:10:47;98715.13;;;9.45;100.00
55070;BME280;40967;52.070;8.596;2023-10-19T00:13:15;98712.22;;;9.41;100.00
55070;BME280;40967;52.070;8.596;2023-10-19T00:15:44;98701.09;;;9.43;100.00
55070;BME280;40967;52.070;8.596;2023-10-19T00:18:14;98697.38;;;9.39;100.00
55070;BME280;40967;52.070;8.596;2023-10-19T00:20:53;98685.59;;;9.35;100.00
55070;BME280;40967;52.070;8.596;2023-10-19T00:23:23;98672.53;;;9.37;100.00
55070;BME280;40967;52.070;8.596;2023-10-19T00:25:56;98663.13;;;9.34;100.00
55070;BME280;40967;52.070;8.596;2023-10-19T00:28:22;98665.03;;;9.34;100.00
55070;BME280;40967;52.070;8.596;2023-10-19T00:30:48;98666.16;;;9.33;100.00
55070;BME280;40967;52.070;8.596;2023-10-19T00:33:15;98648.59;;;9.30;100.00
55070;BME280;40967;52.070;8.596;2023-10-19T00:35:45;98655.81;;;9.35;100.00
55070;BME280;40967;52.070;8.596;2023-10-19T00:38:43;98648.19;;;9.37;100.00
55070;BME280;40967;52.070;8.596;2023-10-19T00:41:23;98643.88;;;9.36;100.00
55070;BME280;40967;52.070;8.596;2023-10-19T00:43:57;98635.25;;;9.34;100.00
55070;BME280;40967;52.070;8.596;2023-10-19T00:46:27;98634.44;;;9.33;100.00
55070;BME280;40967;52.070;8.596;2023-10-19T00:49:09;98623.56;;;9.25;100.00
55070;BME280;40967;52.070;8.596;2023-10-19T00:51:45;98628.66;;;9.26;100.00
55070;BME280;40967;52.070;8.596;2023-10-19T00:54:27;98628.84;;;9.30;100.00
55070;BME280;40967;52.070;8.596;2023-10-19T00:57:02;98624.25;;;9.30;100.00
55070;BME280;40967;52.070;8.596;2023-10-19T00:59:40;98624.56;;;9.29;100.00
55070;BME280;40967;52.070;8.596;2023-10-19T01:02:09;98618.34;;;9.28;100.00
55070;BME280;40967;52.070;8.596;2023-10-19T01:04:56;98616.44;;;9.29;100.00
55070;BME280;40967;52.070;8.596;2023-10-19T01:07:27;98607.22;;;9.30;100.00
55070;BME280;40967;52.070;8.596;2023-10-19T01:09:58;98610.72;;;9.30;100.00
55070;BME280;40967;52.070;8.596;2023-10-19T01:12:25;98605.94;;;9.27;100.00
55070;BME280;40967;52.070;8.596;2023-10-19T01:17:43;98591.72;;;9.22;100.00
55070;BME280;40967;52.070;8.596;2023-10-19T01:20:16;98584.84;;;9.15;100.00
55070;BME280;40967;52.070;8.596;2023-10-19T01:23:12;98578.13;;;9.13;100.00
55070;BME280;40967;52.070;8.596;2023-10-19T01:25:54;98576.72;;;9.15;100.00
55070;BME280;40967;52.070;8.596;2023-10-19T01:28:24;98588.19;;;9.21;100.00
55070;BME280;40967;52.070;8.596;2023-10-19T01:30:54;98588.69;;;9.23;100.00
55070;BME280;40967;52.070;8.596;2023-10-19T01:33:29;98583.78;;;9.25;100.00
55070;BME280;40967;52.070;8.596;2023-10-19T01:36:00;98571.97;;;9.21;100.00
55070;BME280;40967;52.070;8.596;2023-10-19T01:39:04;98578.38;;;9.25;100.00
55070;BME280;40967;52.070;8.596;2023-10-19T01:41:35;98574.25;;;9.28;100.00
55070;BME280;40967;52.070;8.596;2023-10-19T01:44:01;98563.44;;;9.28;100.00
55070;BME280;40967;52.070;8.596;2023-10-19T01:46:32;98548.56;;;9.16;100.00
55070;BME280;40967;52.070;8.596;2023-10-19T01:48:59;98559.44;;;9.25;100.00
55070;BME280;40967;52.070;8.596;2023-10-19T01:51:29;98555.13;;;9.24;100.00
55070;BME280;40967;52.070;8.596;2023-10-19T01:53:56;98561.63;;;9.23;100.00
55070;BME280;40967;52.070;8.596;2023-10-19T01:56:23;98542.66;;;9.14;100.00
55070;BME280;40967;52.070;8.596;2023-10-19T01:58:49;98542.03;;;9.17;100.00
55070;BME280;40967;52.070;8.596;2023-10-19T02:01:17;98538.47;;;9.08;100.00
55070;BME280;40967;52.070;8.596;2023-10-19T02:03:55;98538.03;;;9.15;100.00
55070;BME280;40967;52.070;8.596;2023-10-19T02:06:25;98532.31;;;9.16;100.00
55070;BME280;40967;52.070;8.596;2023-10-19T02:09:13;98537.09;;;9.19;100.00
55070;BME280;40967;52.070;8.596;2023-10-19T02:11:58;98528.50;;;9.17;100.00
55070;BME280;40967;52.070;8.596;2023-10-19T02:14:25;98522.44;;;9.12;100.00
55070;BME280;40967;52.070;8.596;2023-10-19T02:16:53;98522.91;;;9.14;100.00
55070;BME280;40967;52.070;8.596;2023-10-19T02:19:22;98512.88;;;9.14;100.00
55070;BME280;40967;52.070;8.596;2023-10-19T02:21:50;98521.69;;;9.20;100.00
55070;BME280;40967;52.070;8.596;2023-10-19T02:24:18;98520.09;;;9.19;100.00
55070;BME280;40967;52.070;8.596;2023-10-19T02:26:48;98487.38;;;9.07;100.00
55070;BME280;40967;52.070;8.596;2023-10-19T02:29:16;98512.75;;;9.19;100.00
55070;BME280;40967;52.070;8.596;2023-10-19T02:31:44;98511.34;;;9.22;100.00
55070;BME280;40967;52.070;8.596;2023-10-19T02:34:12;98497.47;;;9.15;100.00
55070;BME280;40967;52.070;8.596;2023-10-19T02:36:41;98504.81;;;9.23;100.00
55070;BME280;40967;52.070;8.596;2023-10-19T02:39:11;98501.03;;;9.24;100.00
55070;BME280;40967;52.070;8.596;2023-10-19T02:41:39;98490.78;;;9.21;100.00
55070;BME280;40967;52.070;8.596;2023-10-19T02:44:12;98489.38;;;9.24;100.00
55070;BME280;40967;52.070;8.596;2023-10-19T02:46:47;98476.63;;;9.15;100.00
55070;BME280;40967;52.070;8.596;2023-10-19T02:49:16;98469.97;;;9.22;100.00
55070;BME280;40967;52.070;8.596;2023-10-19T02:51:47;98473.59;;;9.17;100.00
55070;BME280;40967;52.070;8.596;2023-10-19T02:54:20;98489.22;;;9.20;100.00
55070;BME280;40967;52.070;8.596;2023-10-19T02:56:52;98467.25;;;9.22;100.00
55070;BME280;40967;52.070;8.596;2023-10-19T02:59:20;98476.34;;;9.26;100.00
55070;BME280;40967;52.070;8.596;2023-10-19T03:01:49;98487.19;;;9.26;100.00
55070;BME280;40967;52.070;8.596;2023-10-19T03:04:15;98467.44;;;9.25;100.00
55070;BME280;40967;52.070;8.596;2023-10-19T03:06:41;98461.03;;;9.21;100.00
55070;BME280;40967;52.070;8.596;2023-10-19T03:09:11;98475.88;;;9.24;100.00
55070;BME280;40967;52.070;8.596;2023-10-19T03:11:54;98457.56;;;9.21;100.00
55070;BME280;40967;52.070;8.596;2023-10-19T03:14:20;98463.91;;;9.25;100.00
55070;BME280;40967;52.070;8.596;2023-10-19T03:16:50;98457.09;;;9.27;100.00
55070;BME280;40967;52.070;8.596;2023-10-19T03:19:16;98468.72;;;9.28;100.00
55070;BME280;40967;52.070;8.596;2023-10-19T03:21:43;98452.31;;;9.24;100.00
55070;BME280;40967;52.070;8.596;2023-10-19T03:24:09;98447.09;;;9.28;100.00
55070;BME280;40967;52.070;8.596;2023-10-19T03:26:40;98456.28;;;9.27;100.00
55070;BME280;40967;52.070;8.596;2023-10-19T03:29:14;98448.66;;;9.29;100.00
55070;BME280;40967;52.070;8.596;2023-10-19T03:31:40;98445.66;;;9.30;100.00
55070;BME280;40967;52.070;8.596;2023-10-19T03:34:13;98432.25;;;9.25;100.00
55070;BME280;40967;52.070;8.596;2023-10-19T03:36:40;98440.56;;;9.29;100.00
55070;BME280;40967;52.070;8.596;2023-10-19T03:39:08;98436.84;;;9.25;100.00
55070;BME280;40967;52.070;8.596;2023-10-19T03:41:39;98439.75;;;9.28;100.00
55070;BME280;40967;52.070;8.596;2023-10-19T03:44:10;98431.94;;;9.27;100.00
55070;BME280;40967;52.070;8.596;2023-10-19T03:46:39;98425.25;;;9.24;100.00
55070;BME280;40967;52.070;8.596;2023-10-19T03:49:20;98421.59;;;9.29;100.00
55070;BME280;40967;52.070;8.596;2023-10-19T03:51:46;98426.53;;;9.27;100.00
55070;BME280;40967;52.070;8.596;2023-10-19T03:54:43;98426.22;;;9.28;100.00
55070;BME280;40967;52.070;8.596;2023-10-19T03:57:11;98410.28;;;9.27;100.00
55070;BME280;40967;52.070;8.596;2023-10-19T03:59:38;98414.63;;;9.28;100.00
55070;BME280;40967;52.070;8.596;2023-10-19T04:02:12;98422.91;;;9.31;100.00
55070;BME280;40967;52.070;8.596;2023-10-19T04:04:46;98399.16;;;9.28;100.00
55070;BME280;40967;52.070;8.596;2023-10-19T04:07:14;98396.13;;;9.30;100.00
55070;BME280;40967;52.070;8.596;2023-10-19T04:09:50;98396.13;;;9.30;100.00
55070;BME280;40967;52.070;8.596;2023-10-19T04:12:26;98400.13;;;9.32;100.00
55070;BME280;40967;52.070;8.596;2023-10-19T04:15:01;98397.13;;;9.34;100.00
55070;BME280;40967;52.070;8.596;2023-10-19T04:17:46;98401.44;;;9.35;100.00
55070;BME280;40967;52.070;8.596;2023-10-19T04:20:17;98383.41;;;9.30;100.00
55070;BME280;40967;52.070;8.596;2023-10-19T04:22:47;98399.69;;;9.39;100.00
55070;BME280;40967;52.070;8.596;2023-10-19T04:25:14;98386.28;;;9.34;100.00
55070;BME280;40967;52.070;8.596;2023-10-19T04:27:42;98389.34;;;9.41;100.00
55070;BME280;40967;52.070;8.596;2023-10-19T04:30:12;98378.50;;;9.41;100.00
55070;BME280;40967;52.070;8.596;2023-10-19T04:32:45;98390.47;;;9.40;100.00
55070;BME280;40967;52.070;8.596;2023-10-19T04:35:11;98389.13;;;9.29;100.00
55070;BME280;40967;52.070;8.596;2023-10-19T04:37:39;98395.38;;;9.38;100.00
55070;BME280;40967;52.070;8.596;2023-10-19T04:40:11;98381.84;;;9.38;100.00
55070;BME280;40967;52.070;8.596;2023-10-19T04:42:38;98385.22;;;9.43;100.00
55070;BME280;40967;52.070;8.596;2023-10-19T04:45:04;98373.28;;;9.44;100.00
55070;BME280;40967;52.070;8.596;2023-10-19T04:47:31;98381.56;;;9.48;100.00
55070;BME280;40967;52.070;8.596;2023-10-19T04:49:58;98377.09;;;9.43;100.00
55070;BME280;40967;52.070;8.596;2023-10-19T04:52:23;98380.94;;;9.51;100.00
55070;BME280;40967;52.070;8.596;2023-10-19T04:54:49;98372.03;;;9.50;100.00
55070;BME280;40967;52.070;8.596;2023-10-19T04:57:14;98375.69;;;9.54;100.00
55070;BME280;40967;52.070;8.596;2023-10-19T04:59:39;98352.28;;;9.50;100.00
55070;BME280;40967;52.070;8.596;2023-10-19T05:02:08;98366.28;;;9.52;100.00
55070;BME280;40967;52.070;8.596;2023-10-19T05:04:35;98364.38;;;9.52;100.00
55070;BME280;40967;52.070;8.596;2023-10-19T05:07:01;98369.03;;;9.60;100.00
55070;BME280;40967;52.070;8.596;2023-10-19T05:09:29;98360.59;;;9.62;100.00
55070;BME280;40967;52.070;8.596;2023-10-19T05:11:54;98355.97;;;9.62;100.00
55070;BME280;40967;52.070;8.596;2023-10-19T05:14:20;98362.16;;;9.63;100.00
55070;BME280;40967;52.070;8.596;2023-10-19T05:16:46;98365.34;;;9.56;100.00
55070;BME280;40967;52.070;8.596;2023-10-19T05:19:11;98350.22;;;9.55;100.00
55070;BME280;40967;52.070;8.596;2023-10-19T05:21:36;98366.97;;;9.66;100.00
55070;BME280;40967;52.070;8.596;2023-10-19T05:24:02;98364.25;;;9.66;100.00
55070;BME280;40967;52.070;8.596;2023-10-19T05:26:28;98357.72;;;9.67;100.00
55070;BME280;40967;52.070;8.596;2023-10-19T05:28:54;98370.13;;;9.68;100.00
55070;BME280;40967;52.070;8.596;2023-10-19T05:31:20;98363.13;;;9.67;100.00
55070;BME280;40967;52.070;8.596;2023-10-19T05:33:46;98365.22;;;9.70;100.00
55070;BME280;40967;52.070;8.596;2023-10-19T05:36:16;98359.31;;;9.68;100.00
55070;BME280;40967;52.070;8.596;2023-10-19T05:38:43;98355.00;;;9.67;100.00
55070;BME280;40967;52.070;8.596;2023-10-19T05:41:10;98365.06;;;9.75;100.00
55070;BME280;40967;52.070;8.596;2023-10-19T05:43:37;98364.59;;;9.73;100.00
55070;BME280;40967;52.070;8.596;2023-10-19T05:46:03;98362.84;;;9.77;100.00
55070;BME280;40967;52.070;8.596;2023-10-19T05:48:31;98355.19;;;9.79;100.00
55070;BME280;40967;52.070;8.596;2023-10-19T05:50:58;98367.16;;;9.78;100.00
55070;BME280;40967;52.070;8.596;2023-10-19T05:53:23;98355.03;;;9.75;100.00
55070;BME280;40967;52.070;8.596;2023-10-19T05:55:49;98370.50;;;9.83;100.00
55070;BME280;40967;52.070;8.596;2023-10-19T05:58:17;98376.22;;;9.82;100.00
55070;BME280;40967;52.070;8.596;2023-10-19T06:00:43;98364.94;;;9.80;100.00
55070;BME280;40967;52.070;8.596;2023-10-19T06:03:08;98375.94;;;9.83;100.00
55070;BME280;40967;52.070;8.596;2023-10-19T06:05:34;98376.56;;;9.89;100.00
55070;BME280;40967;52.070;8.596;2023-10-19T06:07:59;98369.38;;;9.84;100.00
55070;BME280;40967;52.070;8.596;2023-10-19T06:10:27;98372.41;;;9.83;100.00
55070;BME280;40967;52.070;8.596;2023-10-19T06:12:53;98382.13;;;9.92;100.00
55070;BME280;40967;52.070;8.596;2023-10-19T06:15:21;98377.34;;;9.89;100.00
55070;BME280;40967;52.070;8.596;2023-10-19T06:17:47;98388.53;;;9.96;100.00
55070;BME280;40967;52.070;8.596;2023-10-19T06:20:15;98388.19;;;9.98;100.00
55070;BME280;40967;52.070;8.596;2023-10-19T06:22:54;98397.63;;;10.00;100.00
55070;BME280;40967;52.070;8.596;2023-10-19T06:25:21;98397.28;;;10.02;100.00
55070;BME280;40967;52.070;8.596;2023-10-19T06:27:48;98400.50;;;10.04;100.00
55070;BME280;40967;52.070;8.596;2023-10-19T06:30:15;98402.06;;;10.05;100.00
55070;BME280;40967;52.070;8.596;2023-10-19T06:32:54;98395.25;;;10.07;100.00
55070;BME280;40967;52.070;8.596;2023-10-19T06:35:20;98396.00;;;10.08;100.00
55070;BME280;40967;52.070;8.596;2023-10-19T06:37:46;98397.34;;;10.10;100.00
55070;BME280;40967;52.070;8.596;2023-10-19T06:40:13;98387.31;;;10.11;100.00
55070;BME280;40967;52.070;8.596;2023-10-19T06:42:41;98395.59;;;10.14;100.00
55070;BME280;40967;52.070;8.596;2023-10-19T06:45:07;98390.19;;;10.14;100.00
55070;BME280;40967;52.070;8.596;2023-10-19T06:47:33;98393.34;;;10.16;100.00
55070;BME280;40967;52.070;8.596;2023-10-19T06:50:10;98388.72;;;10.17;100.00
55070;BME280;40967;52.070;8.596;2023-10-19T06:52:38;98389.22;;;10.19;100.00
55070;BME280;40967;52.070;8.596;2023-10-19T06:55:04;98394.31;;;10.20;100.00
55070;BME280;40967;52.070;8.596;2023-10-19T06:57:33;98396.69;;;10.22;100.00
55070;BME280;40967;52.070;8.596;2023-10-19T07:00:00;98397.19;;;10.24;100.00
55070;BME280;40967;52.070;8.596;2023-10-19T07:02:36;98406.13;;;10.24;100.00
55070;BME280;40967;52.070;8.596;2023-10-19T07:05:01;98384.13;;;10.17;100.00
55070;BME280;40967;52.070;8.596;2023-10-19T07:07:28;98396.53;;;10.27;100.00
55070;BME280;40967;52.070;8.596;2023-10-19T07:09:55;98400.06;;;10.27;100.00
55070;BME280;40967;52.070;8.596;2023-10-19T07:12:20;98394.63;;;10.27;100.00
55070;BME280;40967;52.070;8.596;2023-10-19T07:14:46;98385.69;;;10.27;100.00
55070;BME280;40967;52.070;8.596;2023-10-19T07:17:12;98389.84;;;10.33;100.00
55070;BME280;40967;52.070;8.596;2023-10-19T07:19:42;98395.75;;;10.35;100.00
55070;BME280;40967;52.070;8.596;2023-10-19T07:22:09;98400.06;;;10.36;100.00
55070;BME280;40967;52.070;8.596;2023-10-19T07:24:35;98401.66;;;10.37;100.00
55070;BME280;40967;52.070;8.596;2023-10-19T07:27:02;98403.41;;;10.42;100.00
55070;BME280;40967;52.070;8.596;2023-10-19T07:29:33;98401.34;;;10.39;100.00
55070;BME280;40967;52.070;8.596;2023-10-19T07:32:04;98395.44;;;10.45;100.00
55070;BME280;40967;52.070;8.596;2023-10-19T07:34:33;98399.09;;;10.49;100.00
55070;BME280;40967;52.070;8.596;2023-10-19T07:36:59;98404.34;;;10.54;100.00
55070;BME280;40967;52.070;8.596;2023-10-19T07:39:26;98377.59;;;10.44;100.00
55070;BME280;40967;52.070;8.596;2023-10-19T07:41:58;98396.53;;;10.61;100.00
55070;BME280;40967;52.070;8.596;2023-10-19T07:44:25;98397.03;;;10.63;100.00
55070;BME280;40967;52.070;8.596;2023-10-19T07:46:51;98397.78;;;10.64;100.00
55070;BME280;40967;52.070;8.596;2023-10-19T07:49:17;98411.34;;;10.72;100.00
55070;BME280;40967;52.070;8.596;2023-10-19T07:51:47;98409.59;;;10.76;100.00
55070;BME280;40967;52.070;8.596;2023-10-19T07:54:13;98402.41;;;10.80;100.00
55070;BME280;40967;52.070;8.596;2023-10-19T07:56:38;98390.75;;;10.80;100.00
55070;BME280;40967;52.070;8.596;2023-10-19T07:59:04;98396.00;;;10.93;100.00
55070;BME280;40967;52.070;8.596;2023-10-19T08:01:32;98397.25;;;11.04;100.00
55070;BME280;40967;52.070;8.596;2023-10-19T08:03:57;98400.75;;;11.13;100.00
55070;BME280;40967;52.070;8.596;2023-10-19T08:06:22;98397.38;;;11.16;100.00
55070;BME280;40967;52.070;8.596;2023-10-19T08:08:48;98400.06;;;11.25;100.00
55070;BME280;40967;52.070;8.596;2023-10-19T08:11:13;98404.00;;;11.36;100.00
55070;BME280;40967;52.070;8.596;2023-10-19T08:13:39;98400.78;;;11.42;100.00
55070;BME280;40967;52.070;8.596;2023-10-19T08:16:05;98411.47;;;11.48;100.00
55070;BME280;40967;52.070;8.596;2023-10-19T08:18:33;98399.03;;;11.47;100.00
55070;BME280;40967;52.070;8.596;2023-10-19T08:21:02;98415.41;;;11.59;100.00
55070;BME280;40967;52.070;8.596;2023-10-19T08:23:27;98419.38;;;11.61;100.00
55070;BME280;40967;52.070;8.596;2023-10-19T08:25:54;98413.31;;;11.64;100.00
55070;BME280;40967;52.070;8.596;2023-10-19T08:28:20;98412.69;;;11.67;100.00
55070;BME280;40967;52.070;8.596;2023-10-19T08:30:46;98420.19;;;11.70;100.00
55070;BME280;40967;52.070;8.596;2023-10-19T08:33:23;98414.56;;;11.75;100.00
55070;BME280;40967;52.070;8.596;2023-10-19T08:35:56;98419.00;;;11.80;100.00
55070;BME280;40967;52.070;8.596;2023-10-19T08:38:28;98430.16;;;11.87;100.00
55070;BME280;40967;52.070;8.596;2023-10-19T08:40:54;98416.25;;;11.88;100.00
55070;BME280;40967;52.070;8.596;2023-10-19T08:43:21;98433.91;;;12.03;100.00
55070;BME280;40967;52.070;8.596;2023-10-19T08:45:47;98431.59;;;12.13;100.00
55070;BME280;40967;52.070;8.596;2023-10-19T08:48:13;98423.38;;;12.22;100.00
55070;BME280;40967;52.070;8.596;2023-10-19T08:50:39;98423.44;;;12.34;100.00
55070;BME280;40967;52.070;8.596;2023-10-19T08:53:07;98425.75;;;12.44;100.00
55070;BME280;40967;52.070;8.596;2023-10-19T08:55:39;98419.13;;;12.53;100.00
55070;BME280;40967;52.070;8.596;2023-10-19T08:58:05;98415.53;;;12.62;100.00
55070;BME280;40967;52.070;8.596;2023-10-19T09:00:43;98418.63;;;12.72;100.00
55070;BME280;40967;52.070;8.596;2023-10-19T09:03:12;98412.00;;;12.82;100.00
55070;BME280;40967;52.070;8.596;2023-10-19T09:05:40;98406.00;;;12.88;100.00
55070;BME280;40967;52.070;8.596;2023-10-19T09:08:06;98403.06;;;12.93;100.00
55070;BME280;40967;52.070;8.596;2023-10-19T09:10:35;98412.44;;;13.04;100.00
55070;BME280;40967;52.070;8.596;2023-10-19T09:13:03;98394.19;;;13.05;100.00
55070;BME280;40967;52.070;8.596;2023-10-19T09:15:30;98403.50;;;13.16;100.00
55070;BME280;40967;52.070;8.596;2023-10-19T09:18:19;98408.50;;;13.26;100.00
55070;BME280;40967;52.070;8.596;2023-10-19T09:20:47;98412.28;;;13.33;100.00
55070;BME280;40967;52.070;8.596;2023-10-19T09:23:23;98390.50;;;13.33;100.00
55070;BME280;40967;52.070;8.596;2023-10-19T09:25:51;98406.16;;;13.48;100.00
55070;BME280;40967;52.070;8.596;2023-10-19T09:28:23;98404.59;;;13.59;100.00
55070;BME280;40967;52.070;8.596;2023-10-19T09:30:50;98397.09;;;13.68;100.00
55070;BME280;40967;52.070;8.596;2023-10-19T09:33:16;98391.06;;;13.75;100.00
55070;BME280;40967;52.070;8.596;2023-10-19T09:35:46;98389.84;;;13.85;100.00
55070;BME280;40967;52.070;8.596;2023-10-19T09:38:15;98389.25;;;13.91;100.00
55070;BME280;40967;52.070;8.596;2023-10-19T09:40:40;98379.47;;;13.90;100.00
55070;BME280;40967;52.070;8.596;2023-10-19T09:43:11;98393.19;;;14.06;100.00
55070;BME280;40967;52.070;8.596;2023-10-19T09:45:41;98389.34;;;14.07;100.00
55070;BME280;40967;52.070;8.596;2023-10-19T09:48:07;98395.38;;;14.12;100.00
55070;BME280;40967;52.070;8.596;2023-10-19T09:50:50;98390.00;;;14.16;100.00
55070;BME280;40967;52.070;8.596;2023-10-19T09:53:17;98396.59;;;14.27;100.00
55070;BME280;40967;52.070;8.596;2023-10-19T09:55:44;98400.69;;;14.33;100.00
55070;BME280;40967;52.070;8.596;2023-10-19T09:58:16;98377.81;;;14.37;100.00
55070;BME280;40967;52.070;8.596;2023-10-19T10:00:44;98392.91;;;14.47;100.00
55070;BME280;40967;52.070;8.596;2023-10-19T10:03:49;98381.31;;;14.50;100.00
55070;BME280;40967;52.070;8.596;2023-10-19T10:06:27;98383.53;;;14.60;100.00
55070;BME280;40967;52.070;8.596;2023-10-19T10:08:53;98383.72;;;14.67;100.00
55070;BME280;40967;52.070;8.596;2023-10-19T10:11:24;98383.38;;;14.68;100.00
55070;BME280;40967;52.070;8.596;2023-10-19T10:13:52;98369.06;;;14.71;100.00
55070;BME280;40967;52.070;8.596;2023-10-19T10:16:21;98376.53;;;14.74;100.00
55070;BME280;40967;52.070;8.596;2023-10-19T10:18:48;98364.00;;;14.73;100.00
55070;BME280;40967;52.070;8.596;2023-10-19T10:21:14;98376.75;;;14.82;100.00
55070;BME280;40967;52.070;8.596;2023-10-19T10:23:58;98376.84;;;14.85;100.00
55070;BME280;40967;52.070;8.596;2023-10-19T10:26:27;98377.81;;;14.93;100.00
55070;BME280;40967;52.070;8.596;2023-10-19T10:29:12;98372.00;;;14.94;100.00
55070;BME280;40967;52.070;8.596;2023-10-19T10:31:44;98383.91;;;15.02;100.00
55070;BME280;40967;52.070;8.596;2023-10-19T10:37:00;98370.78;;;15.07;100.00
55070;BME280;40967;52.070;8.596;2023-10-19T10:39:29;98371.25;;;15.09;100.00
55070;BME280;40967;52.070;8.596;2023-10-19T10:42:00;98371.06;;;15.18;100.00
55070;BME280;40967;52.070;8.596;2023-10-19T10:44:40;98364.13;;;15.20;100.00
55070;BME280;40967;52.070;8.596;2023-10-19T10:47:07;98359.53;;;15.24;100.00
55070;BME280;40967;52.070;8.596;2023-10-19T10:49:33;98356.44;;;15.26;100.00
55070;BME280;40967;52.070;8.596;2023-10-19T10:51:58;98356.97;;;15.31;100.00
55070;BME280;40967;52.070;8.596;2023-10-19T10:54:24;98360.88;;;15.46;100.00
55070;BME280;40967;52.070;8.596;2023-10-19T10:56:50;98354.25;;;15.62;100.00
55070;BME280;40967;52.070;8.596;2023-10-19T10:59:16;98343.69;;;15.96;100.00
55070;BME280;40967;52.070;8.596;2023-10-19T11:01:42;98346.47;;;16.34;100.00
55070;BME280;40967;52.070;8.596;2023-10-19T11:04:11;98352.56;;;16.62;100.00
55070;BME280;40967;52.070;8.596;2023-10-19T11:06:53;98362.47;;;16.89;100.00
55070;BME280;40967;52.070;8.596;2023-10-19T11:09:22;98355.81;;;17.09;100.00
55070;BME280;40967;52.070;8.596;2023-10-19T11:11:48;98355.25;;;17.23;100.00
55070;BME280;40967;52.070;8.596;2023-10-19T11:14:17;98350.69;;;17.30;100.00
55070;BME280;40967;52.070;8.596;2023-10-19T11:16:43;98353.13;;;17.35;100.00
55070;BME280;40967;52.070;8.596;2023-10-19T11:19:10;98350.22;;;17.47;100.00
55070;BME280;40967;52.070;8.596;2023-10-19T11:21:36;98344.56;;;17.59;100.00
55070;BME280;40967;52.070;8.596;2023-10-19T11:24:02;98343.44;;;17.64;100.00
55070;BME280;40967;52.070;8.596;2023-10-19T11:26:28;98339.81;;;17.82;100.00
55070;BME280;40967;52.070;8.596;2023-10-19T11:28:59;98338.81;;;17.94;100.00
55070;BME280;40967;52.070;8.596;2023-10-19T11:31:26;98339.72;;;18.01;100.00
55070;BME280;40967;52.070;8.596;2023-10-19T11:33:54;98340.56;;;18.09;100.00
55070;BME280;40967;52.070;8.596;2023-10-19T11:36:23;98344.28;;;18.20;100.00
55070;BME280;40967;52.070;8.596;2023-10-19T11:38:51;98336.56;;;18.29;100.00
55070;BME280;40967;52.070;8.596;2023-10-19T11:41:19;98346.03;;;18.35;100.00
55070;BME280;40967;52.070;8.596;2023-10-19T11:43:46;98335.09;;;18.39;100.00
55070;BME280;40967;52.070;8.596;2023-10-19T11:46:13;98337.56;;;18.47;100.00
55070;BME280;40967;52.070;8.596;2023-10-19T11:48:43;98326.97;;;18.46;100.00
55070;BME280;40967;52.070;8.596;2023-10-19T11:51:12;98333.78;;;18.55;99.72
55070;BME280;40967;52.070;8.596;2023-10-19T11:53:40;98349.78;;;18.50;98.76
55070;BME280;40967;52.070;8.596;2023-10-19T11:56:08;98332.72;;;18.37;98.30
55070;BME280;40967;52.070;8.596;2023-10-19T11:58:35;98334.75;;;18.40;98.61
55070;BME280;40967;52.070;8.596;2023-10-19T12:01:04;98339.00;;;18.38;98.25
55070;BME280;40967;52.070;8.596;2023-10-19T12:03:53;98326.72;;;18.28;98.33
55070;BME280;40967;52.070;8.596;2023-10-19T12:06:30;98344.47;;;18.34;98.21
55070;BME280;40967;52.070;8.596;2023-10-19T12:08:56;98331.81;;;18.30;97.88
55070;BME280;40967;52.070;8.596;2023-10-19T12:11:26;98323.16;;;18.24;98.11
55070;BME280;40967;52.070;8.596;2023-10-19T12:13:52;98327.84;;;18.24;98.86
55070;BME280;40967;52.070;8.596;2023-10-19T12:16:22;98330.22;;;18.25;98.06
55070;BME280;40967;52.070;8.596;2023-10-19T12:18:49;98338.03;;;18.23;98.02
55070;BME280;40967;52.070;8.596;2023-10-19T12:21:17;98321.50;;;18.20;98.38
55070;BME280;40967;52.070;8.596;2023-10-19T12:23:55;98323.47;;;18.19;98.22
55070;BME280;40967;52.070;8.596;2023-10-19T12:26:22;98325.53;;;18.26;97.77
55070;BME280;40967;52.070;8.596;2023-10-19T12:28:48;98334.53;;;18.26;97.71
55070;BME280;40967;52.070;8.596;2023-10-19T12:31:14;98331.00;;;18.26;97.92
55070;BME280;40967;52.070;8.596;2023-10-19T12:33:40;98338.81;;;18.24;98.49
55070;BME280;40967;52.070;8.596;2023-10-19T12:36:07;98338.06;;;18.27;98.76
55070;BME280;40967;52.070;8.596;2023-10-19T12:38:51;98324.72;;;18.25;98.17
55070;BME280;40967;52.070;8.596;2023-10-19T12:41:21;98329.88;;;18.30;98.36
55070;BME280;40967;52.070;8.596;2023-10-19T12:43:47;98317.00;;;18.34;98.45
55070;BME280;40967;52.070;8.596;2023-10-19T12:46:13;98325.69;;;18.40;98.38
55070;BME280;40967;52.070;8.596;2023-10-19T12:48:43;98321.47;;;18.46;97.97
55070;BME280;40967;52.070;8.596;2023-10-19T12:51:17;98312.09;;;18.47;97.34
55070;BME280;40967;52.070;8.596;2023-10-19T12:53:49;98302.63;;;18.44;96.98
55070;BME280;40967;52.070;8.596;2023-10-19T12:56:22;98308.00;;;18.37;96.63
55070;BME280;40967;52.070;8.596;2023-10-19T12:59:03;98313.78;;;18.29;96.50
55070;BME280;40967;52.070;8.596;2023-10-19T13:01:38;98297.28;;;18.25;96.96
55070;BME280;40967;52.070;8.596;2023-10-19T13:04:10;98301.25;;;18.28;97.42
55070;BME280;40967;52.070;8.596;2023-10-19T13:07:04;98293.31;;;18.23;97.55
55070;BME280;40967;52.070;8.596;2023-10-19T13:09:50;98298.06;;;18.26;98.00
55070;BME280;40967;52.070;8.596;2023-10-19T13:12:22;98291.41;;;18.27;98.28
55070;BME280;40967;52.070;8.596;2023-10-19T13:14:48;98278.44;;;18.24;98.32